sensor_id;sensor_type;location;lat;lon;timestamp;P1;durP1;ratioP1;P2;durP2;ratioP2
14092;SDS011;7123;49.468;10.992;2023-04-25T00:02:07;3.83;;;3.53;;
14092;SDS011;7123;49.468;10.992;2023-04-25T00:04:35;4.07;;;3.77;;
14092;SDS011;7123;49.468;10.992;2023-04-25T00:07:04;3.90;;;3.50;;
14092;SDS011;7123;49.468;10.992;2023-04-25T00:09:31;4.00;;;3.67;;
14092;SDS011;7123;49.468;10.992;2023-04-25T00:11:58;4.43;;;3.40;;
14092;SDS011;7123;49.468;10.992;2023-04-25T00:14:25;3.97;;;3.67;;
14092;SDS011;7123;49.468;10.992;2023-04-25T00:16:51;3.53;;;3.23;;
14092;SDS011;7123;49.468;10.992;2023-04-25T00:19:18;3.83;;;3.53;;
14092;SDS011;7123;49.468;10.992;2023-04-25T00:21:45;3.57;;;3.27;;
14092;SDS011;7123;49.468;10.992;2023-04-25T00:24:12;3.60;;;3.30;;
14092;SDS011;7123;49.468;10.992;2023-04-25T00:26:39;3.93;;;3.23;;
14092;SDS011;7123;49.468;10.992;2023-04-25T00:29:05;3.70;;;3.30;;
14092;SDS011;7123;49.468;10.992;2023-04-25T00:31:32;3.40;;;3.10;;
14092;SDS011;7123;49.468;10.992;2023-04-25T00:33:59;3.30;;;3.00;;
14092;SDS011;7123;49.468;10.992;2023-04-25T00:36:29;3.20;;;3.00;;
14092;SDS011;7123;49.468;10.992;2023-04-25T00:38:56;3.30;;;3.10;;
14092;SDS011;7123;49.468;10.992;2023-04-25T00:41:22;3.53;;;3.20;;
14092;SDS011;7123;49.468;10.992;2023-04-25T00:43:51;3.60;;;3.20;;
14092;SDS011;7123;49.468;10.992;2023-04-25T00:46:19;4.47;;;4.17;;
14092;SDS011;7123;49.468;10.992;2023-04-25T00:48:46;5.20;;;3.43;;
14092;SDS011;7123;49.468;10.992;2023-04-25T00:51:14;7.00;;;3.73;;
14092;SDS011;7123;49.468;10.992;2023-04-25T00:53:45;3.33;;;3.03;;
14092;SDS011;7123;49.468;10.992;2023-04-25T00:56:12;3.17;;;2.97;;
14092;SDS011;7123;49.468;10.992;2023-04-25T00:58:40;3.40;;;3.10;;
14092;SDS011;7123;49.468;10.992;2023-04-25T01:01:08;3.47;;;3.03;;
14092;SDS011;7123;49.468;10.992;2023-04-25T01:03:37;3.23;;;3.00;;
14092;SDS011;7123;49.468;10.992;2023-04-25T01:06:09;2.87;;;2.67;;
14092;SDS011;7123;49.468;10.992;2023-04-25T01:08:37;3.13;;;2.83;;
14092;SDS011;7123;49.468;10.992;2023-04-25T01:11:05;2.50;;;2.40;;
14092;SDS011;7123;49.468;10.992;2023-04-25T01:13:32;3.40;;;3.10;;
14092;SDS011;7123;49.468;10.992;2023-04-25T01:16:00;3.07;;;2.70;;
14092;SDS011;7123;49.468;10.992;2023-04-25T01:18:26;3.80;;;3.00;;
14092;SDS011;7123;49.468;10.992;2023-04-25T01:20:53;3.00;;;2.80;;
14092;SDS011;7123;49.468;10.992;2023-04-25T01:23:21;4.10;;;3.00;;
14092;SDS011;7123;49.468;10.992;2023-04-25T01:25:49;3.07;;;2.87;;
14092;SDS011;7123;49.468;10.992;2023-04-25T01:28:16;3.10;;;2.90;;
14092;SDS011;7123;49.468;10.992;2023-04-25T01:30:43;2.87;;;2.67;;
14092;SDS011;7123;49.468;10.992;2023-04-25T01:33:10;2.90;;;2.70;;
14092;SDS011;7123;49.468;10.992;2023-04-25T01:35:39;3.17;;;2.87;;
14092;SDS011;7123;49.468;10.992;2023-04-25T01:38:06;3.23;;;3.03;;
14092;SDS011;7123;49.468;10.992;2023-04-25T01:40:33;6.10;;;2.70;;
14092;SDS011;7123;49.468;10.992;2023-04-25T01:43:01;3.40;;;3.10;;
14092;SDS011;7123;49.468;10.992;2023-04-25T01:45:28;4.33;;;3.27;;
14092;SDS011;7123;49.468;10.992;2023-04-25T01:47:55;3.90;;;3.23;;
14092;SDS011;7123;49.468;10.992;2023-04-25T01:50:25;2.97;;;2.77;;
14092;SDS011;7123;49.468;10.992;2023-04-25T01:52:52;3.30;;;3.00;;
14092;SDS011;7123;49.468;10.992;2023-04-25T01:55:19;4.27;;;3.30;;
14092;SDS011;7123;49.468;10.992;2023-04-25T01:57:46;2.80;;;2.60;;
14092;SDS011;7123;49.468;10.992;2023-04-25T02:00:13;3.00;;;2.80;;
14092;SDS011;7123;49.468;10.992;2023-04-25T02:02:40;3.47;;;2.83;;
14092;SDS011;7123;49.468;10.992;2023-04-25T02:05:07;3.03;;;2.67;;
14092;SDS011;7123;49.468;10.992;2023-04-25T02:07:34;2.40;;;2.20;;
14092;SDS011;7123;49.468;10.992;2023-04-25T02:10:00;3.47;;;3.17;;
14092;SDS011;7123;49.468;10.992;2023-04-25T02:12:27;2.90;;;2.70;;
14092;SDS011;7123;49.468;10.992;2023-04-25T02:14:54;2.73;;;2.53;;
14092;SDS011;7123;49.468;10.992;2023-04-25T02:17:21;4.77;;;2.60;;
14092;SDS011;7123;49.468;10.992;2023-04-25T02:19:48;2.57;;;2.37;;
14092;SDS011;7123;49.468;10.992;2023-04-25T02:22:14;2.83;;;2.30;;
14092;SDS011;7123;49.468;10.992;2023-04-25T02:24:41;2.80;;;2.30;;
14092;SDS011;7123;49.468;10.992;2023-04-25T02:27:08;3.00;;;2.40;;
14092;SDS011;7123;49.468;10.992;2023-04-25T02:29:35;3.23;;;2.53;;
14092;SDS011;7123;49.468;10.992;2023-04-25T02:32:01;2.80;;;2.40;;
14092;SDS011;7123;49.468;10.992;2023-04-25T02:34:28;2.90;;;2.70;;
14092;SDS011;7123;49.468;10.992;2023-04-25T02:36:55;2.43;;;2.23;;
14092;SDS011;7123;49.468;10.992;2023-04-25T02:39:22;2.17;;;2.07;;
14092;SDS011;7123;49.468;10.992;2023-04-25T02:41:51;2.60;;;2.40;;
14092;SDS011;7123;49.468;10.992;2023-04-25T02:44:18;2.53;;;2.33;;
14092;SDS011;7123;49.468;10.992;2023-04-25T02:46:44;2.40;;;2.20;;
14092;SDS011;7123;49.468;10.992;2023-04-25T02:49:11;2.50;;;2.30;;
14092;SDS011;7123;49.468;10.992;2023-04-25T02:51:38;2.43;;;2.33;;
14092;SDS011;7123;49.468;10.992;2023-04-25T02:54:04;2.83;;;2.60;;
14092;SDS011;7123;49.468;10.992;2023-04-25T02:56:32;2.50;;;2.30;;
14092;SDS011;7123;49.468;10.992;2023-04-25T02:58:59;2.60;;;2.40;;
14092;SDS011;7123;49.468;10.992;2023-04-25T03:01:25;2.97;;;2.77;;
14092;SDS011;7123;49.468;10.992;2023-04-25T03:03:52;3.30;;;3.10;;
14092;SDS011;7123;49.468;10.992;2023-04-25T03:06:20;3.80;;;2.97;;
14092;SDS011;7123;49.468;10.992;2023-04-25T03:08:47;3.27;;;2.97;;
14092;SDS011;7123;49.468;10.992;2023-04-25T03:11:13;3.97;;;3.53;;
14092;SDS011;7123;49.468;10.992;2023-04-25T03:13:40;3.60;;;3.30;;
14092;SDS011;7123;49.468;10.992;2023-04-25T03:16:07;3.83;;;2.90;;
14092;SDS011;7123;49.468;10.992;2023-04-25T03:18:33;3.60;;;3.17;;
14092;SDS011;7123;49.468;10.992;2023-04-25T03:21:00;3.87;;;3.57;;
14092;SDS011;7123;49.468;10.992;2023-04-25T03:23:27;4.00;;;3.70;;
14092;SDS011;7123;49.468;10.992;2023-04-25T03:25:53;3.80;;;3.50;;
14092;SDS011;7123;49.468;10.992;2023-04-25T03:28:20;3.67;;;3.37;;
14092;SDS011;7123;49.468;10.992;2023-04-25T03:30:47;4.90;;;3.97;;
14092;SDS011;7123;49.468;10.992;2023-04-25T03:33:14;4.00;;;3.70;;
14092;SDS011;7123;49.468;10.992;2023-04-25T03:35:41;4.10;;;3.57;;
14092;SDS011;7123;49.468;10.992;2023-04-25T03:38:08;4.20;;;3.80;;
14092;SDS011;7123;49.468;10.992;2023-04-25T03:40:35;4.30;;;3.90;;
14092;SDS011;7123;49.468;10.992;2023-04-25T03:43:02;5.87;;;4.27;;
14092;SDS011;7123;49.468;10.992;2023-04-25T03:45:28;4.97;;;4.40;;
14092;SDS011;7123;49.468;10.992;2023-04-25T03:47:55;4.53;;;4.20;;
14092;SDS011;7123;49.468;10.992;2023-04-25T03:50:22;5.47;;;4.93;;
14092;SDS011;7123;49.468;10.992;2023-04-25T03:52:48;5.93;;;5.33;;
14092;SDS011;7123;49.468;10.992;2023-04-25T03:55:15;8.10;;;5.40;;
14092;SDS011;7123;49.468;10.992;2023-04-25T03:57:42;6.03;;;5.43;;
14092;SDS011;7123;49.468;10.992;2023-04-25T04:00:09;6.20;;;5.60;;
14092;SDS011;7123;49.468;10.992;2023-04-25T04:02:36;6.47;;;5.47;;
14092;SDS011;7123;49.468;10.992;2023-04-25T04:05:04;9.77;;;5.30;;
14092;SDS011;7123;49.468;10.992;2023-04-25T04:07:32;6.13;;;5.53;;
14092;SDS011;7123;49.468;10.992;2023-04-25T04:09:59;6.53;;;5.23;;
14092;SDS011;7123;49.468;10.992;2023-04-25T04:12:26;8.07;;;5.70;;
14092;SDS011;7123;49.468;10.992;2023-04-25T04:14:52;6.70;;;6.03;;
14092;SDS011;7123;49.468;10.992;2023-04-25T04:17:19;6.23;;;5.57;;
14092;SDS011;7123;49.468;10.992;2023-04-25T04:19:46;6.50;;;5.90;;
14092;SDS011;7123;49.468;10.992;2023-04-25T04:22:12;8.53;;;5.83;;
14092;SDS011;7123;49.468;10.992;2023-04-25T04:24:39;6.80;;;6.13;;
14092;SDS011;7123;49.468;10.992;2023-04-25T04:27:06;7.37;;;6.20;;
14092;SDS011;7123;49.468;10.992;2023-04-25T04:29:32;7.20;;;6.40;;
14092;SDS011;7123;49.468;10.992;2023-04-25T04:31:59;6.53;;;5.80;;
14092;SDS011;7123;49.468;10.992;2023-04-25T04:34:27;6.27;;;5.67;;
14092;SDS011;7123;49.468;10.992;2023-04-25T04:36:53;6.97;;;6.20;;
14092;SDS011;7123;49.468;10.992;2023-04-25T04:39:21;8.70;;;6.27;;
14092;SDS011;7123;49.468;10.992;2023-04-25T04:41:48;7.13;;;5.93;;
14092;SDS011;7123;49.468;10.992;2023-04-25T04:44:15;8.40;;;6.20;;
14092;SDS011;7123;49.468;10.992;2023-04-25T04:46:41;6.73;;;6.13;;
14092;SDS011;7123;49.468;10.992;2023-04-25T04:49:09;8.20;;;6.37;;
14092;SDS011;7123;49.468;10.992;2023-04-25T04:51:36;6.40;;;5.80;;
14092;SDS011;7123;49.468;10.992;2023-04-25T04:54:03;6.87;;;6.17;;
14092;SDS011;7123;49.468;10.992;2023-04-25T04:56:30;8.20;;;6.60;;
14092;SDS011;7123;49.468;10.992;2023-04-25T04:58:57;6.93;;;6.33;;
14092;SDS011;7123;49.468;10.992;2023-04-25T05:01:25;7.07;;;6.33;;
14092;SDS011;7123;49.468;10.992;2023-04-25T05:03:52;6.87;;;6.17;;
14092;SDS011;7123;49.468;10.992;2023-04-25T05:06:20;7.10;;;6.40;;
14092;SDS011;7123;49.468;10.992;2023-04-25T05:08:47;6.53;;;5.93;;
14092;SDS011;7123;49.468;10.992;2023-04-25T05:11:13;6.50;;;5.40;;
14092;SDS011;7123;49.468;10.992;2023-04-25T05:13:40;6.27;;;5.67;;
14092;SDS011;7123;49.468;10.992;2023-04-25T05:16:07;5.97;;;5.30;;
14092;SDS011;7123;49.468;10.992;2023-04-25T05:18:33;6.70;;;5.93;;
14092;SDS011;7123;49.468;10.992;2023-04-25T05:21:00;6.43;;;5.60;;
14092;SDS011;7123;49.468;10.992;2023-04-25T05:23:27;6.10;;;5.50;;
14092;SDS011;7123;49.468;10.992;2023-04-25T05:25:54;5.90;;;5.37;;
14092;SDS011;7123;49.468;10.992;2023-04-25T05:28:20;5.93;;;5.37;;
14092;SDS011;7123;49.468;10.992;2023-04-25T05:30:47;5.90;;;5.40;;
14092;SDS011;7123;49.468;10.992;2023-04-25T05:33:15;6.53;;;5.70;;
14092;SDS011;7123;49.468;10.992;2023-04-25T05:35:42;6.13;;;5.53;;
14092;SDS011;7123;49.468;10.992;2023-04-25T05:38:08;6.63;;;5.17;;
14092;SDS011;7123;49.468;10.992;2023-04-25T05:40:35;6.20;;;5.50;;
14092;SDS011;7123;49.468;10.992;2023-04-25T05:43:02;6.07;;;5.47;;
14092;SDS011;7123;49.468;10.992;2023-04-25T05:45:29;6.67;;;5.27;;
14092;SDS011;7123;49.468;10.992;2023-04-25T05:47:56;7.57;;;5.60;;
14092;SDS011;7123;49.468;10.992;2023-04-25T05:50:22;6.00;;;5.40;;
14092;SDS011;7123;49.468;10.992;2023-04-25T05:52:49;5.63;;;5.03;;
14092;SDS011;7123;49.468;10.992;2023-04-25T05:55:16;5.67;;;5.17;;
14092;SDS011;7123;49.468;10.992;2023-04-25T05:57:43;5.80;;;5.20;;
14092;SDS011;7123;49.468;10.992;2023-04-25T06:00:12;6.80;;;5.40;;
14092;SDS011;7123;49.468;10.992;2023-04-25T06:02:41;5.50;;;4.90;;
14092;SDS011;7123;49.468;10.992;2023-04-25T06:05:08;5.87;;;5.17;;
14092;SDS011;7123;49.468;10.992;2023-04-25T06:07:36;6.10;;;5.50;;
14092;SDS011;7123;49.468;10.992;2023-04-25T06:10:02;6.00;;;5.40;;
14092;SDS011;7123;49.468;10.992;2023-04-25T06:12:32;8.20;;;5.63;;
14092;SDS011;7123;49.468;10.992;2023-04-25T06:14:59;7.17;;;6.47;;
14092;SDS011;7123;49.468;10.992;2023-04-25T06:17:27;7.83;;;6.47;;
14092;SDS011;7123;49.468;10.992;2023-04-25T06:19:54;6.93;;;6.20;;
14092;SDS011;7123;49.468;10.992;2023-04-25T06:22:21;7.70;;;6.37;;
14092;SDS011;7123;49.468;10.992;2023-04-25T06:24:47;8.70;;;7.13;;
14092;SDS011;7123;49.468;10.992;2023-04-25T06:27:14;8.60;;;6.53;;
14092;SDS011;7123;49.468;10.992;2023-04-25T06:29:42;7.93;;;6.60;;
14092;SDS011;7123;49.468;10.992;2023-04-25T06:32:08;7.13;;;6.37;;
14092;SDS011;7123;49.468;10.992;2023-04-25T06:34:35;6.97;;;6.33;;
14092;SDS011;7123;49.468;10.992;2023-04-25T06:37:02;7.63;;;6.73;;
14092;SDS011;7123;49.468;10.992;2023-04-25T06:39:29;7.10;;;6.40;;
14092;SDS011;7123;49.468;10.992;2023-04-25T06:41:56;6.90;;;6.30;;
14092;SDS011;7123;49.468;10.992;2023-04-25T06:44:22;7.80;;;6.70;;
14092;SDS011;7123;49.468;10.992;2023-04-25T06:46:50;7.63;;;6.47;;
14092;SDS011;7123;49.468;10.992;2023-04-25T06:49:17;6.80;;;6.20;;
14092;SDS011;7123;49.468;10.992;2023-04-25T06:51:43;8.73;;;7.83;;
14092;SDS011;7123;49.468;10.992;2023-04-25T06:54:10;7.67;;;6.87;;
14092;SDS011;7123;49.468;10.992;2023-04-25T06:56:37;7.53;;;6.40;;
14092;SDS011;7123;49.468;10.992;2023-04-25T06:59:03;7.80;;;7.00;;
14092;SDS011;7123;49.468;10.992;2023-04-25T07:01:30;6.97;;;6.20;;
14092;SDS011;7123;49.468;10.992;2023-04-25T07:03:57;10.80;;;6.73;;
14092;SDS011;7123;49.468;10.992;2023-04-25T07:06:24;6.23;;;5.70;;
14092;SDS011;7123;49.468;10.992;2023-04-25T07:08:51;8.00;;;6.60;;
14092;SDS011;7123;49.468;10.992;2023-04-25T07:11:18;6.70;;;5.47;;
14092;SDS011;7123;49.468;10.992;2023-04-25T07:13:45;7.10;;;5.27;;
14092;SDS011;7123;49.468;10.992;2023-04-25T07:16:12;5.47;;;4.97;;
14092;SDS011;7123;49.468;10.992;2023-04-25T07:18:39;5.77;;;4.73;;
14092;SDS011;7123;49.468;10.992;2023-04-25T07:21:05;5.97;;;5.07;;
14092;SDS011;7123;49.468;10.992;2023-04-25T07:23:32;4.57;;;4.17;;
14092;SDS011;7123;49.468;10.992;2023-04-25T07:25:59;6.57;;;5.40;;
14092;SDS011;7123;49.468;10.992;2023-04-25T07:28:25;7.37;;;5.33;;
14092;SDS011;7123;49.468;10.992;2023-04-25T07:30:52;5.77;;;4.80;;
14092;SDS011;7123;49.468;10.992;2023-04-25T07:33:19;7.93;;;5.50;;
14092;SDS011;7123;49.468;10.992;2023-04-25T07:35:46;5.20;;;4.70;;
14092;SDS011;7123;49.468;10.992;2023-04-25T07:38:13;4.90;;;4.40;;
14092;SDS011;7123;49.468;10.992;2023-04-25T07:40:40;7.00;;;4.83;;
14092;SDS011;7123;49.468;10.992;2023-04-25T07:43:07;5.53;;;4.63;;
14092;SDS011;7123;49.468;10.992;2023-04-25T07:45:33;4.20;;;3.80;;
14092;SDS011;7123;49.468;10.992;2023-04-25T07:48:00;6.23;;;4.50;;
14092;SDS011;7123;49.468;10.992;2023-04-25T07:50:27;5.27;;;4.43;;
14092;SDS011;7123;49.468;10.992;2023-04-25T07:52:54;4.07;;;3.67;;
14092;SDS011;7123;49.468;10.992;2023-04-25T07:55:20;6.03;;;4.03;;
14092;SDS011;7123;49.468;10.992;2023-04-25T07:57:47;5.97;;;2.60;;
14092;SDS011;7123;49.468;10.992;2023-04-25T08:00:13;4.23;;;3.23;;
14092;SDS011;7123;49.468;10.992;2023-04-25T08:02:41;3.20;;;2.53;;
14092;SDS011;7123;49.468;10.992;2023-04-25T08:05:08;4.20;;;2.60;;
14092;SDS011;7123;49.468;10.992;2023-04-25T08:07:38;5.03;;;2.57;;
14092;SDS011;7123;49.468;10.992;2023-04-25T08:10:05;2.87;;;2.67;;
14092;SDS011;7123;49.468;10.992;2023-04-25T08:12:33;5.20;;;3.60;;
14092;SDS011;7123;49.468;10.992;2023-04-25T08:15:00;3.10;;;2.80;;
14092;SDS011;7123;49.468;10.992;2023-04-25T08:17:27;6.53;;;3.23;;
14092;SDS011;7123;49.468;10.992;2023-04-25T08:19:53;2.60;;;2.40;;
14092;SDS011;7123;49.468;10.992;2023-04-25T08:22:21;4.60;;;3.00;;
14092;SDS011;7123;49.468;10.992;2023-04-25T08:24:48;3.40;;;3.00;;
14092;SDS011;7123;49.468;10.992;2023-04-25T08:27:14;5.00;;;3.20;;
14092;SDS011;7123;49.468;10.992;2023-04-25T08:29:41;7.10;;;3.73;;
14092;SDS011;7123;49.468;10.992;2023-04-25T08:32:08;7.27;;;3.67;;
14092;SDS011;7123;49.468;10.992;2023-04-25T08:34:35;3.40;;;3.10;;
14092;SDS011;7123;49.468;10.992;2023-04-25T08:37:03;3.40;;;3.10;;
14092;SDS011;7123;49.468;10.992;2023-04-25T08:39:31;4.97;;;3.43;;
14092;SDS011;7123;49.468;10.992;2023-04-25T08:41:58;4.93;;;3.73;;
14092;SDS011;7123;49.468;10.992;2023-04-25T08:44:26;4.67;;;4.00;;
14092;SDS011;7123;49.468;10.992;2023-04-25T08:46:53;5.37;;;3.60;;
14092;SDS011;7123;49.468;10.992;2023-04-25T08:49:22;4.33;;;3.33;;
14092;SDS011;7123;49.468;10.992;2023-04-25T08:51:50;3.93;;;3.60;;
14092;SDS011;7123;49.468;10.992;2023-04-25T08:54:17;5.40;;;4.20;;
14092;SDS011;7123;49.468;10.992;2023-04-25T08:57:02;6.73;;;4.17;;
14092;SDS011;7123;49.468;10.992;2023-04-25T08:59:32;6.23;;;4.07;;
14092;SDS011;7123;49.468;10.992;2023-04-25T09:02:01;5.50;;;5.00;;
14092;SDS011;7123;49.468;10.992;2023-04-25T09:04:32;5.67;;;4.60;;
14092;SDS011;7123;49.468;10.992;2023-04-25T09:06:58;5.87;;;4.23;;
14092;SDS011;7123;49.468;10.992;2023-04-25T09:09:25;7.17;;;5.17;;
14092;SDS011;7123;49.468;10.992;2023-04-25T09:11:52;6.20;;;5.60;;
14092;SDS011;7123;49.468;10.992;2023-04-25T09:14:23;6.73;;;4.53;;
14092;SDS011;7123;49.468;10.992;2023-04-25T09:22:06;6.03;;;5.43;;
14092;SDS011;7123;49.468;10.992;2023-04-25T09:24:34;7.13;;;5.83;;
14092;SDS011;7123;49.468;10.992;2023-04-25T09:27:08;10.40;;;5.60;;
14092;SDS011;7123;49.468;10.992;2023-04-25T09:29:37;6.13;;;5.53;;
14092;SDS011;7123;49.468;10.992;2023-04-25T09:32:21;6.20;;;5.60;;
14092;SDS011;7123;49.468;10.992;2023-04-25T09:34:53;4.97;;;4.57;;
14092;SDS011;7123;49.468;10.992;2023-04-25T09:37:25;5.83;;;5.20;;
14092;SDS011;7123;49.468;10.992;2023-04-25T09:39:58;7.30;;;4.93;;
14092;SDS011;7123;49.468;10.992;2023-04-25T09:42:28;5.90;;;5.27;;
14092;SDS011;7123;49.468;10.992;2023-04-25T09:44:58;6.67;;;5.60;;
14092;SDS011;7123;49.468;10.992;2023-04-25T09:47:25;5.63;;;5.10;;
14092;SDS011;7123;49.468;10.992;2023-04-25T09:49:54;5.63;;;5.13;;
14092;SDS011;7123;49.468;10.992;2023-04-25T09:52:22;7.03;;;6.27;;
14092;SDS011;7123;49.468;10.992;2023-04-25T09:54:51;6.27;;;5.67;;
14092;SDS011;7123;49.468;10.992;2023-04-25T09:57:21;6.47;;;5.60;;
14092;SDS011;7123;49.468;10.992;2023-04-25T09:59:50;7.73;;;5.20;;
14092;SDS011;7123;49.468;10.992;2023-04-25T10:02:21;5.47;;;4.93;;
14092;SDS011;7123;49.468;10.992;2023-04-25T10:04:51;6.13;;;4.57;;
14092;SDS011;7123;49.468;10.992;2023-04-25T10:07:22;5.73;;;5.17;;
14092;SDS011;7123;49.468;10.992;2023-04-25T10:09:59;6.13;;;5.40;;
14092;SDS011;7123;49.468;10.992;2023-04-25T10:12:29;10.27;;;5.10;;
14092;SDS011;7123;49.468;10.992;2023-04-25T10:15:00;4.77;;;4.30;;
14092;SDS011;7123;49.468;10.992;2023-04-25T10:17:27;8.60;;;5.60;;
14092;SDS011;7123;49.468;10.992;2023-04-25T10:19:55;6.57;;;5.37;;
14092;SDS011;7123;49.468;10.992;2023-04-25T10:22:29;5.83;;;4.93;;
14092;SDS011;7123;49.468;10.992;2023-04-25T10:24:57;4.30;;;3.90;;
14092;SDS011;7123;49.468;10.992;2023-04-25T10:27:27;2.93;;;2.70;;
14092;SDS011;7123;49.468;10.992;2023-04-25T10:30:03;4.47;;;3.07;;
14092;SDS011;7123;49.468;10.992;2023-04-25T10:32:35;4.57;;;3.40;;
14092;SDS011;7123;49.468;10.992;2023-04-25T10:37:56;5.93;;;3.17;;
14092;SDS011;7123;49.468;10.992;2023-04-25T10:40:31;4.03;;;3.10;;
14092;SDS011;7123;49.468;10.992;2023-04-25T10:45:58;4.30;;;2.80;;
14092;SDS011;7123;49.468;10.992;2023-04-25T10:48:27;2.70;;;2.13;;
14092;SDS011;7123;49.468;10.992;2023-04-25T10:51:10;3.47;;;1.70;;
14092;SDS011;7123;49.468;10.992;2023-04-25T10:53:38;2.10;;;1.90;;
14092;SDS011;7123;49.468;10.992;2023-04-25T10:59:15;4.30;;;1.90;;
14092;SDS011;7123;49.468;10.992;2023-04-25T11:01:44;2.40;;;1.93;;
14092;SDS011;7123;49.468;10.992;2023-04-25T11:04:25;2.30;;;2.10;;
14092;SDS011;7123;49.468;10.992;2023-04-25T11:09:45;3.57;;;2.27;;
14092;SDS011;7123;49.468;10.992;2023-04-25T11:12:12;4.90;;;1.73;;
14092;SDS011;7123;49.468;10.992;2023-04-25T11:14:40;3.50;;;1.87;;
14092;SDS011;7123;49.468;10.992;2023-04-25T11:17:07;3.93;;;2.03;;
14092;SDS011;7123;49.468;10.992;2023-04-25T11:19:35;3.70;;;1.70;;
14092;SDS011;7123;49.468;10.992;2023-04-25T11:22:02;1.77;;;1.67;;
14092;SDS011;7123;49.468;10.992;2023-04-25T11:24:35;1.70;;;1.60;;
14092;SDS011;7123;49.468;10.992;2023-04-25T11:27:03;1.80;;;1.57;;
14092;SDS011;7123;49.468;10.992;2023-04-25T11:29:31;1.50;;;1.40;;
14092;SDS011;7123;49.468;10.992;2023-04-25T11:31:59;1.90;;;1.80;;
14092;SDS011;7123;49.468;10.992;2023-04-25T11:34:28;1.80;;;1.53;;
14092;SDS011;7123;49.468;10.992;2023-04-25T11:37:02;1.47;;;1.37;;
14092;SDS011;7123;49.468;10.992;2023-04-25T11:39:29;1.70;;;1.60;;
14092;SDS011;7123;49.468;10.992;2023-04-25T11:41:56;4.07;;;1.70;;
14092;SDS011;7123;49.468;10.992;2023-04-25T11:44:26;2.13;;;1.60;;
14092;SDS011;7123;49.468;10.992;2023-04-25T11:46:54;1.97;;;1.63;;
14092;SDS011;7123;49.468;10.992;2023-04-25T11:49:21;1.60;;;1.50;;
14092;SDS011;7123;49.468;10.992;2023-04-25T11:51:53;2.73;;;1.30;;
14092;SDS011;7123;49.468;10.992;2023-04-25T11:54:21;1.63;;;1.40;;
14092;SDS011;7123;49.468;10.992;2023-04-25T11:56:49;2.20;;;1.27;;
14092;SDS011;7123;49.468;10.992;2023-04-25T11:59:16;1.40;;;1.30;;
14092;SDS011;7123;49.468;10.992;2023-04-25T12:01:49;2.80;;;1.30;;
14092;SDS011;7123;49.468;10.992;2023-04-25T12:04:17;2.60;;;1.53;;
14092;SDS011;7123;49.468;10.992;2023-04-25T12:06:53;1.90;;;1.43;;
14092;SDS011;7123;49.468;10.992;2023-04-25T12:09:27;1.70;;;1.50;;
14092;SDS011;7123;49.468;10.992;2023-04-25T12:11:58;1.60;;;1.50;;
14092;SDS011;7123;49.468;10.992;2023-04-25T12:14:30;2.03;;;1.20;;
14092;SDS011;7123;49.468;10.992;2023-04-25T12:16:59;1.60;;;1.37;;
14092;SDS011;7123;49.468;10.992;2023-04-25T12:19:33;1.43;;;1.30;;
14092;SDS011;7123;49.468;10.992;2023-04-25T12:22:02;2.03;;;1.63;;
14092;SDS011;7123;49.468;10.992;2023-04-25T12:24:33;1.90;;;1.10;;
14092;SDS011;7123;49.468;10.992;2023-04-25T12:27:05;1.97;;;1.60;;
14092;SDS011;7123;49.468;10.992;2023-04-25T12:29:34;1.20;;;1.10;;
14092;SDS011;7123;49.468;10.992;2023-04-25T12:32:14;1.47;;;1.37;;
14092;SDS011;7123;49.468;10.992;2023-04-25T12:34:42;1.50;;;1.40;;
14092;SDS011;7123;49.468;10.992;2023-04-25T12:37:09;1.47;;;1.30;;
14092;SDS011;7123;49.468;10.992;2023-04-25T12:39:36;2.07;;;1.40;;
14092;SDS011;7123;49.468;10.992;2023-04-25T12:42:03;3.73;;;1.57;;
14092;SDS011;7123;49.468;10.992;2023-04-25T12:44:34;1.60;;;1.50;;
14092;SDS011;7123;49.468;10.992;2023-04-25T12:47:01;2.13;;;1.83;;
14092;SDS011;7123;49.468;10.992;2023-04-25T12:49:29;1.77;;;1.67;;
14092;SDS011;7123;49.468;10.992;2023-04-25T12:51:56;4.23;;;1.70;;
14092;SDS011;7123;49.468;10.992;2023-04-25T12:54:23;2.60;;;1.80;;
14092;SDS011;7123;49.468;10.992;2023-04-25T12:56:50;1.73;;;1.63;;
14092;SDS011;7123;49.468;10.992;2023-04-25T12:59:17;2.60;;;1.60;;
14092;SDS011;7123;49.468;10.992;2023-04-25T13:01:44;1.93;;;1.63;;
14092;SDS011;7123;49.468;10.992;2023-04-25T13:04:11;1.97;;;1.77;;
14092;SDS011;7123;49.468;10.992;2023-04-25T13:06:38;2.30;;;1.83;;
14092;SDS011;7123;49.468;10.992;2023-04-25T13:09:05;2.07;;;1.80;;
14092;SDS011;7123;49.468;10.992;2023-04-25T13:11:32;2.47;;;1.60;;
14092;SDS011;7123;49.468;10.992;2023-04-25T13:14:00;2.53;;;1.90;;
14092;SDS011;7123;49.468;10.992;2023-04-25T13:16:27;3.83;;;1.80;;
14092;SDS011;7123;49.468;10.992;2023-04-25T13:18:54;3.70;;;1.83;;
14092;SDS011;7123;49.468;10.992;2023-04-25T13:21:22;1.90;;;1.80;;
14092;SDS011;7123;49.468;10.992;2023-04-25T13:23:49;3.37;;;2.00;;
14092;SDS011;7123;49.468;10.992;2023-04-25T13:26:16;2.23;;;2.00;;
14092;SDS011;7123;49.468;10.992;2023-04-25T13:28:43;1.90;;;1.80;;
14092;SDS011;7123;49.468;10.992;2023-04-25T13:31:10;2.17;;;1.87;;
14092;SDS011;7123;49.468;10.992;2023-04-25T13:33:37;2.07;;;1.90;;
14092;SDS011;7123;49.468;10.992;2023-04-25T13:36:03;3.20;;;2.10;;
14092;SDS011;7123;49.468;10.992;2023-04-25T13:38:31;4.90;;;2.33;;
14092;SDS011;7123;49.468;10.992;2023-04-25T13:40:58;1.83;;;1.73;;
14092;SDS011;7123;49.468;10.992;2023-04-25T13:43:25;4.00;;;2.07;;
14092;SDS011;7123;49.468;10.992;2023-04-25T13:45:51;3.57;;;2.30;;
14092;SDS011;7123;49.468;10.992;2023-04-25T13:48:18;3.80;;;2.27;;
14092;SDS011;7123;49.468;10.992;2023-04-25T13:50:46;6.17;;;3.80;;
14092;SDS011;7123;49.468;10.992;2023-04-25T13:53:13;4.03;;;2.53;;
14092;SDS011;7123;49.468;10.992;2023-04-25T13:55:39;2.47;;;2.10;;
14092;SDS011;7123;49.468;10.992;2023-04-25T13:58:06;3.23;;;2.37;;
14092;SDS011;7123;49.468;10.992;2023-04-25T14:00:38;2.30;;;2.10;;
14092;SDS011;7123;49.468;10.992;2023-04-25T14:03:05;2.30;;;2.10;;
14092;SDS011;7123;49.468;10.992;2023-04-25T14:05:36;5.23;;;2.77;;
14092;SDS011;7123;49.468;10.992;2023-04-25T14:08:07;4.90;;;2.50;;
14092;SDS011;7123;49.468;10.992;2023-04-25T14:10:35;2.57;;;2.37;;
14092;SDS011;7123;49.468;10.992;2023-04-25T14:13:02;2.63;;;2.23;;
14092;SDS011;7123;49.468;10.992;2023-04-25T14:15:34;4.13;;;2.70;;
14092;SDS011;7123;49.468;10.992;2023-04-25T14:18:01;4.77;;;2.33;;
14092;SDS011;7123;49.468;10.992;2023-04-25T14:20:28;5.40;;;2.70;;
14092;SDS011;7123;49.468;10.992;2023-04-25T14:22:55;4.40;;;2.67;;
14092;SDS011;7123;49.468;10.992;2023-04-25T14:25:24;3.37;;;2.90;;
14092;SDS011;7123;49.468;10.992;2023-04-25T14:27:51;2.53;;;2.33;;
14092;SDS011;7123;49.468;10.992;2023-04-25T14:30:19;2.93;;;2.73;;
14092;SDS011;7123;49.468;10.992;2023-04-25T14:32:48;3.27;;;2.60;;
14092;SDS011;7123;49.468;10.992;2023-04-25T14:35:15;5.97;;;2.37;;
14092;SDS011;7123;49.468;10.992;2023-04-25T14:37:42;3.93;;;2.70;;
14092;SDS011;7123;49.468;10.992;2023-04-25T14:40:10;3.87;;;2.90;;
14092;SDS011;7123;49.468;10.992;2023-04-25T14:42:39;3.10;;;2.80;;
14092;SDS011;7123;49.468;10.992;2023-04-25T14:45:07;4.43;;;3.23;;
14092;SDS011;7123;49.468;10.992;2023-04-25T14:47:37;5.57;;;2.70;;
14092;SDS011;7123;49.468;10.992;2023-04-25T14:50:05;2.93;;;2.73;;
14092;SDS011;7123;49.468;10.992;2023-04-25T14:52:32;3.03;;;2.60;;
14092;SDS011;7123;49.468;10.992;2023-04-25T14:54:59;4.00;;;2.70;;
14092;SDS011;7123;49.468;10.992;2023-04-25T14:57:32;2.80;;;2.60;;
14092;SDS011;7123;49.468;10.992;2023-04-25T14:59:59;3.73;;;2.73;;
14092;SDS011;7123;49.468;10.992;2023-04-25T15:02:27;5.27;;;2.43;;
14092;SDS011;7123;49.468;10.992;2023-04-25T15:04:54;3.30;;;2.50;;
14092;SDS011;7123;49.468;10.992;2023-04-25T15:07:22;4.37;;;2.50;;
14092;SDS011;7123;49.468;10.992;2023-04-25T15:09:49;2.93;;;2.73;;